sensor_id;sensor_type;location;lat;lon;timestamp;P1;durP1;ratioP1;P2;durP2;ratioP2
11048;SDS011;5577;42.706;23.160;2023-06-10T00:02:17;12.27;;;9.13;;
11048;SDS011;5577;42.706;23.160;2023-06-10T00:05:01;11.43;;;9.20;;
11048;SDS011;5577;42.706;23.160;2023-06-10T00:07:46;13.03;;;9.50;;
11048;SDS011;5577;42.706;23.160;2023-06-10T00:10:31;9.87;;;8.90;;
11048;SDS011;5577;42.706;23.160;2023-06-10T00:13:15;10.77;;;9.23;;
11048;SDS011;5577;42.706;23.160;2023-06-10T00:15:59;10.00;;;8.87;;
11048;SDS011;5577;42.706;23.160;2023-06-10T00:18:43;9.63;;;8.63;;
11048;SDS011;5577;42.706;23.160;2023-06-10T00:21:28;11.90;;;8.87;;
11048;SDS011;5577;42.706;23.160;2023-06-10T00:24:12;13.03;;;9.50;;
11048;SDS011;5577;42.706;23.160;2023-06-10T00:26:56;9.90;;;8.90;;
11048;SDS011;5577;42.706;23.160;2023-06-10T00:29:39;13.30;;;9.77;;
11048;SDS011;5577;42.706;23.160;2023-06-10T00:32:23;11.10;;;9.87;;
11048;SDS011;5577;42.706;23.160;2023-06-10T00:35:07;11.17;;;9.80;;
11048;SDS011;5577;42.706;23.160;2023-06-10T00:37:52;11.60;;;10.03;;
11048;SDS011;5577;42.706;23.160;2023-06-10T00:40:39;12.20;;;10.93;;
11048;SDS011;5577;42.706;23.160;2023-06-10T00:43:27;11.87;;;10.73;;
11048;SDS011;5577;42.706;23.160;2023-06-10T00:46:13;10.93;;;9.70;;
11048;SDS011;5577;42.706;23.160;2023-06-10T00:48:58;14.67;;;9.77;;
11048;SDS011;5577;42.706;23.160;2023-06-10T00:51:43;10.90;;;9.87;;
11048;SDS011;5577;42.706;23.160;2023-06-10T00:54:27;13.70;;;10.07;;
11048;SDS011;5577;42.706;23.160;2023-06-10T00:57:12;11.30;;;9.73;;
11048;SDS011;5577;42.706;23.160;2023-06-10T00:59:57;12.07;;;9.93;;
11048;SDS011;5577;42.706;23.160;2023-06-10T01:02:41;11.57;;;10.33;;
11048;SDS011;5577;42.706;23.160;2023-06-10T01:05:25;11.70;;;10.03;;
11048;SDS011;5577;42.706;23.160;2023-06-10T01:08:16;11.73;;;9.90;;
11048;SDS011;5577;42.706;23.160;2023-06-10T01:11:11;12.30;;;9.80;;
11048;SDS011;5577;42.706;23.160;2023-06-10T01:14:01;11.83;;;9.77;;
11048;SDS011;5577;42.706;23.160;2023-06-10T01:16:48;10.33;;;9.03;;
11048;SDS011;5577;42.706;23.160;2023-06-10T01:19:33;12.53;;;9.50;;
11048;SDS011;5577;42.706;23.160;2023-06-10T01:22:20;10.57;;;9.27;;
11048;SDS011;5577;42.706;23.160;2023-06-10T01:25:06;12.07;;;10.13;;
11048;SDS011;5577;42.706;23.160;2023-06-10T01:27:51;10.13;;;9.13;;
11048;SDS011;5577;42.706;23.160;2023-06-10T01:33:54;10.13;;;9.07;;
11048;SDS011;5577;42.706;23.160;2023-06-10T01:36:39;11.10;;;8.63;;
11048;SDS011;5577;42.706;23.160;2023-06-10T01:39:24;10.00;;;8.93;;
11048;SDS011;5577;42.706;23.160;2023-06-10T01:42:09;9.87;;;8.87;;
11048;SDS011;5577;42.706;23.160;2023-06-10T01:44:55;9.67;;;8.67;;
11048;SDS011;5577;42.706;23.160;2023-06-10T01:47:39;10.43;;;9.33;;
11048;SDS011;5577;42.706;23.160;2023-06-10T01:50:23;9.53;;;8.63;;
11048;SDS011;5577;42.706;23.160;2023-06-10T01:53:07;10.93;;;9.70;;
11048;SDS011;5577;42.706;23.160;2023-06-10T01:55:51;10.13;;;8.90;;
11048;SDS011;5577;42.706;23.160;2023-06-10T01:58:35;9.90;;;8.87;;
11048;SDS011;5577;42.706;23.160;2023-06-10T02:01:19;9.30;;;8.40;;
11048;SDS011;5577;42.706;23.160;2023-06-10T02:04:03;10.60;;;9.60;;
11048;SDS011;5577;42.706;23.160;2023-06-10T02:06:47;9.30;;;8.33;;
11048;SDS011;5577;42.706;23.160;2023-06-10T02:09:31;9.40;;;8.30;;
11048;SDS011;5577;42.706;23.160;2023-06-10T02:12:18;12.50;;;8.70;;
11048;SDS011;5577;42.706;23.160;2023-06-10T02:15:02;10.70;;;9.40;;
11048;SDS011;5577;42.706;23.160;2023-06-10T02:17:46;12.47;;;9.30;;
11048;SDS011;5577;42.706;23.160;2023-06-10T02:20:30;11.47;;;9.10;;
11048;SDS011;5577;42.706;23.160;2023-06-10T02:23:14;12.13;;;9.63;;
11048;SDS011;5577;42.706;23.160;2023-06-10T02:25:58;10.83;;;9.73;;
11048;SDS011;5577;42.706;23.160;2023-06-10T02:28:42;11.17;;;9.80;;
11048;SDS011;5577;42.706;23.160;2023-06-10T02:31:27;12.10;;;9.70;;
11048;SDS011;5577;42.706;23.160;2023-06-10T02:34:12;10.13;;;9.13;;
11048;SDS011;5577;42.706;23.160;2023-06-10T02:36:57;10.20;;;9.07;;
11048;SDS011;5577;42.706;23.160;2023-06-10T02:39:41;10.73;;;9.60;;
11048;SDS011;5577;42.706;23.160;2023-06-10T02:42:25;9.73;;;8.77;;
11048;SDS011;5577;42.706;23.160;2023-06-10T02:45:09;10.73;;;9.57;;
11048;SDS011;5577;42.706;23.160;2023-06-10T02:47:53;10.60;;;9.60;;
11048;SDS011;5577;42.706;23.160;2023-06-10T02:50:38;11.30;;;9.20;;
11048;SDS011;5577;42.706;23.160;2023-06-10T02:53:24;11.43;;;9.43;;
11048;SDS011;5577;42.706;23.160;2023-06-10T02:56:08;11.27;;;10.07;;
11048;SDS011;5577;42.706;23.160;2023-06-10T02:58:52;10.10;;;9.10;;
11048;SDS011;5577;42.706;23.160;2023-06-10T03:01:36;11.17;;;10.00;;
11048;SDS011;5577;42.706;23.160;2023-06-10T03:04:20;10.67;;;9.57;;
11048;SDS011;5577;42.706;23.160;2023-06-10T03:07:04;10.90;;;9.73;;
11048;SDS011;5577;42.706;23.160;2023-06-10T03:09:50;10.93;;;9.50;;
11048;SDS011;5577;42.706;23.160;2023-06-10T03:12:34;10.07;;;9.07;;
11048;SDS011;5577;42.706;23.160;2023-06-10T03:15:18;10.87;;;9.60;;
11048;SDS011;5577;42.706;23.160;2023-06-10T03:18:04;10.37;;;9.27;;
11048;SDS011;5577;42.706;23.160;2023-06-10T03:20:48;11.17;;;8.97;;
11048;SDS011;5577;42.706;23.160;2023-06-10T03:23:33;11.87;;;9.00;;
11048;SDS011;5577;42.706;23.160;2023-06-10T03:26:17;9.17;;;8.17;;
11048;SDS011;5577;42.706;23.160;2023-06-10T03:29:00;10.67;;;8.50;;
11048;SDS011;5577;42.706;23.160;2023-06-10T03:31:44;8.97;;;7.73;;
11048;SDS011;5577;42.706;23.160;2023-06-10T03:34:29;9.60;;;8.60;;
11048;SDS011;5577;42.706;23.160;2023-06-10T03:37:17;10.87;;;8.73;;
11048;SDS011;5577;42.706;23.160;2023-06-10T03:40:01;9.37;;;8.47;;
11048;SDS011;5577;42.706;23.160;2023-06-10T03:42:45;12.27;;;8.77;;
11048;SDS011;5577;42.706;23.160;2023-06-10T03:45:29;10.43;;;9.37;;
11048;SDS011;5577;42.706;23.160;2023-06-10T03:48:13;11.63;;;9.83;;
11048;SDS011;5577;42.706;23.160;2023-06-10T03:50:57;11.00;;;9.87;;
11048;SDS011;5577;42.706;23.160;2023-06-10T03:53:42;12.73;;;10.63;;
11048;SDS011;5577;42.706;23.160;2023-06-10T03:56:26;12.53;;;10.80;;
11048;SDS011;5577;42.706;23.160;2023-06-10T03:59:10;12.67;;;11.37;;
11048;SDS011;5577;42.706;23.160;2023-06-10T04:01:54;12.87;;;11.50;;
11048;SDS011;5577;42.706;23.160;2023-06-10T04:04:38;12.70;;;11.30;;
11048;SDS011;5577;42.706;23.160;2023-06-10T04:07:23;12.90;;;11.00;;
11048;SDS011;5577;42.706;23.160;2023-06-10T04:10:07;11.10;;;10.00;;
11048;SDS011;5577;42.706;23.160;2023-06-10T04:12:52;12.87;;;11.57;;
11048;SDS011;5577;42.706;23.160;2023-06-10T04:15:36;13.00;;;11.67;;
11048;SDS011;5577;42.706;23.160;2023-06-10T04:18:21;11.57;;;10.03;;
11048;SDS011;5577;42.706;23.160;2023-06-10T04:21:07;12.20;;;10.30;;
11048;SDS011;5577;42.706;23.160;2023-06-10T04:23:54;11.20;;;10.00;;
11048;SDS011;5577;42.706;23.160;2023-06-10T04:26:38;12.77;;;10.67;;
11048;SDS011;5577;42.706;23.160;2023-06-10T04:29:22;15.23;;;10.63;;
11048;SDS011;5577;42.706;23.160;2023-06-10T04:32:06;12.50;;;10.40;;
11048;SDS011;5577;42.706;23.160;2023-06-10T04:34:51;11.83;;;10.63;;
11048;SDS011;5577;42.706;23.160;2023-06-10T04:37:35;10.87;;;9.83;;
11048;SDS011;5577;42.706;23.160;2023-06-10T04:40:18;11.97;;;10.77;;
11048;SDS011;5577;42.706;23.160;2023-06-10T04:43:03;11.67;;;10.33;;
11048;SDS011;5577;42.706;23.160;2023-06-10T04:45:47;11.63;;;10.53;;
11048;SDS011;5577;42.706;23.160;2023-06-10T04:48:31;11.47;;;10.23;;
11048;SDS011;5577;42.706;23.160;2023-06-10T04:51:18;14.10;;;9.70;;
11048;SDS011;5577;42.706;23.160;2023-06-10T04:54:02;11.33;;;10.13;;
11048;SDS011;5577;42.706;23.160;2023-06-10T04:56:47;11.30;;;10.17;;
11048;SDS011;5577;42.706;23.160;2023-06-10T04:59:31;11.77;;;10.57;;
11048;SDS011;5577;42.706;23.160;2023-06-10T05:02:15;12.73;;;10.20;;
11048;SDS011;5577;42.706;23.160;2023-06-10T05:04:59;11.50;;;10.30;;
11048;SDS011;5577;42.706;23.160;2023-06-10T05:07:43;11.20;;;10.07;;
11048;SDS011;5577;42.706;23.160;2023-06-10T05:10:27;11.10;;;10.00;;
11048;SDS011;5577;42.706;23.160;2023-06-10T05:13:11;11.97;;;9.93;;
11048;SDS011;5577;42.706;23.160;2023-06-10T05:15:55;10.43;;;9.43;;
11048;SDS011;5577;42.706;23.160;2023-06-10T05:18:39;11.30;;;10.20;;
11048;SDS011;5577;42.706;23.160;2023-06-10T05:21:23;11.03;;;9.87;;
11048;SDS011;5577;42.706;23.160;2023-06-10T05:24:07;12.03;;;10.27;;
11048;SDS011;5577;42.706;23.160;2023-06-10T05:26:51;10.53;;;9.50;;
11048;SDS011;5577;42.706;23.160;2023-06-10T05:29:35;10.10;;;9.17;;
11048;SDS011;5577;42.706;23.160;2023-06-10T05:32:19;10.50;;;9.50;;
11048;SDS011;5577;42.706;23.160;2023-06-10T05:35:03;10.00;;;9.00;;
11048;SDS011;5577;42.706;23.160;2023-06-10T05:37:48;9.53;;;8.67;;
11048;SDS011;5577;42.706;23.160;2023-06-10T05:40:32;9.40;;;8.50;;
11048;SDS011;5577;42.706;23.160;2023-06-10T05:43:16;9.97;;;8.97;;
11048;SDS011;5577;42.706;23.160;2023-06-10T05:46:00;8.40;;;7.60;;
11048;SDS011;5577;42.706;23.160;2023-06-10T05:48:44;9.00;;;7.70;;
11048;SDS011;5577;42.706;23.160;2023-06-10T05:51:28;8.37;;;7.60;;
11048;SDS011;5577;42.706;23.160;2023-06-10T05:54:12;8.47;;;7.67;;
11048;SDS011;5577;42.706;23.160;2023-06-10T05:56:56;7.97;;;7.20;;
11048;SDS011;5577;42.706;23.160;2023-06-10T05:59:40;8.40;;;6.97;;
11048;SDS011;5577;42.706;23.160;2023-06-10T06:02:24;8.53;;;6.57;;
11048;SDS011;5577;42.706;23.160;2023-06-10T06:05:08;7.57;;;6.40;;
11048;SDS011;5577;42.706;23.160;2023-06-10T06:07:52;7.73;;;7.03;;
11048;SDS011;5577;42.706;23.160;2023-06-10T06:10:36;8.70;;;6.80;;
11048;SDS011;5577;42.706;23.160;2023-06-10T06:13:20;7.70;;;6.90;;
11048;SDS011;5577;42.706;23.160;2023-06-10T06:16:04;8.67;;;7.50;;
11048;SDS011;5577;42.706;23.160;2023-06-10T06:18:48;7.90;;;7.03;;
11048;SDS011;5577;42.706;23.160;2023-06-10T06:21:32;8.97;;;7.23;;
11048;SDS011;5577;42.706;23.160;2023-06-10T06:24:16;8.33;;;7.57;;
11048;SDS011;5577;42.706;23.160;2023-06-10T06:27:00;9.43;;;7.13;;
11048;SDS011;5577;42.706;23.160;2023-06-10T06:29:44;9.50;;;8.10;;
11048;SDS011;5577;42.706;23.160;2023-06-10T06:32:28;8.93;;;7.27;;
11048;SDS011;5577;42.706;23.160;2023-06-10T06:35:12;8.50;;;7.60;;
11048;SDS011;5577;42.706;23.160;2023-06-10T06:37:56;8.73;;;7.70;;
11048;SDS011;5577;42.706;23.160;2023-06-10T06:40:40;9.23;;;8.40;;
11048;SDS011;5577;42.706;23.160;2023-06-10T06:43:24;8.63;;;7.83;;
11048;SDS011;5577;42.706;23.160;2023-06-10T06:46:08;8.87;;;8.07;;
11048;SDS011;5577;42.706;23.160;2023-06-10T06:48:52;9.00;;;8.10;;
11048;SDS011;5577;42.706;23.160;2023-06-10T06:51:36;9.90;;;8.27;;
11048;SDS011;5577;42.706;23.160;2023-06-10T06:54:20;8.67;;;7.73;;
11048;SDS011;5577;42.706;23.160;2023-06-10T06:57:04;9.17;;;8.27;;
11048;SDS011;5577;42.706;23.160;2023-06-10T06:59:49;7.97;;;7.20;;
11048;SDS011;5577;42.706;23.160;2023-06-10T07:02:33;8.20;;;7.40;;
11048;SDS011;5577;42.706;23.160;2023-06-10T07:05:17;7.20;;;6.50;;
11048;SDS011;5577;42.706;23.160;2023-06-10T07:08:01;6.43;;;5.80;;
11048;SDS011;5577;42.706;23.160;2023-06-10T07:10:45;6.87;;;5.67;;
11048;SDS011;5577;42.706;23.160;2023-06-10T07:13:29;9.50;;;6.20;;
11048;SDS011;5577;42.706;23.160;2023-06-10T07:16:13;6.93;;;6.23;;
11048;SDS011;5577;42.706;23.160;2023-06-10T07:18:57;6.23;;;5.73;;
11048;SDS011;5577;42.706;23.160;2023-06-10T07:21:41;6.13;;;5.50;;
11048;SDS011;5577;42.706;23.160;2023-06-10T07:24:25;6.00;;;5.40;;
11048;SDS011;5577;42.706;23.160;2023-06-10T07:27:09;6.53;;;5.97;;
11048;SDS011;5577;42.706;23.160;2023-06-10T07:29:53;5.60;;;5.00;;
11048;SDS011;5577;42.706;23.160;2023-06-10T07:32:37;8.40;;;5.23;;
11048;SDS011;5577;42.706;23.160;2023-06-10T07:35:21;5.77;;;5.27;;
11048;SDS011;5577;42.706;23.160;2023-06-10T07:38:05;5.70;;;5.20;;
11048;SDS011;5577;42.706;23.160;2023-06-10T07:40:49;6.10;;;5.40;;
11048;SDS011;5577;42.706;23.160;2023-06-10T07:43:33;6.50;;;5.90;;
11048;SDS011;5577;42.706;23.160;2023-06-10T07:46:17;7.47;;;5.60;;
11048;SDS011;5577;42.706;23.160;2023-06-10T07:49:01;6.73;;;5.33;;
11048;SDS011;5577;42.706;23.160;2023-06-10T07:51:45;8.67;;;5.67;;
11048;SDS011;5577;42.706;23.160;2023-06-10T07:54:29;6.03;;;5.50;;
11048;SDS011;5577;42.706;23.160;2023-06-10T07:57:13;5.37;;;4.87;;
11048;SDS011;5577;42.706;23.160;2023-06-10T07:59:57;5.20;;;4.73;;
11048;SDS011;5577;42.706;23.160;2023-06-10T08:02:43;6.33;;;4.87;;
11048;SDS011;5577;42.706;23.160;2023-06-10T08:05:28;5.27;;;4.60;;
11048;SDS011;5577;42.706;23.160;2023-06-10T08:08:13;5.10;;;4.60;;
11048;SDS011;5577;42.706;23.160;2023-06-10T08:10:57;4.93;;;4.53;;
11048;SDS011;5577;42.706;23.160;2023-06-10T08:13:41;5.43;;;4.80;;
11048;SDS011;5577;42.706;23.160;2023-06-10T08:16:25;7.10;;;4.20;;
11048;SDS011;5577;42.706;23.160;2023-06-10T08:19:09;6.47;;;4.73;;
11048;SDS011;5577;42.706;23.160;2023-06-10T08:21:53;5.03;;;4.53;;
11048;SDS011;5577;42.706;23.160;2023-06-10T08:24:37;5.93;;;4.53;;
11048;SDS011;5577;42.706;23.160;2023-06-10T08:27:21;4.80;;;4.17;;
11048;SDS011;5577;42.706;23.160;2023-06-10T08:30:05;4.43;;;4.03;;
11048;SDS011;5577;42.706;23.160;2023-06-10T08:32:50;4.90;;;4.00;;
11048;SDS011;5577;42.706;23.160;2023-06-10T08:35:35;4.53;;;4.13;;
11048;SDS011;5577;42.706;23.160;2023-06-10T08:38:19;5.37;;;4.10;;
11048;SDS011;5577;42.706;23.160;2023-06-10T08:41:04;4.27;;;3.77;;
11048;SDS011;5577;42.706;23.160;2023-06-10T08:46:36;5.83;;;4.20;;
11048;SDS011;5577;42.706;23.160;2023-06-10T08:49:22;3.87;;;2.93;;
11048;SDS011;5577;42.706;23.160;2023-06-10T08:52:09;3.80;;;2.90;;
11048;SDS011;5577;42.706;23.160;2023-06-10T08:55:03;6.07;;;3.80;;
11048;SDS011;5577;42.706;23.160;2023-06-10T08:57:48;4.27;;;3.77;;
11048;SDS011;5577;42.706;23.160;2023-06-10T09:00:34;4.47;;;3.73;;
11048;SDS011;5577;42.706;23.160;2023-06-10T09:03:19;3.70;;;3.40;;
11048;SDS011;5577;42.706;23.160;2023-06-10T09:06:05;8.33;;;4.67;;
11048;SDS011;5577;42.706;23.160;2023-06-10T09:08:50;4.80;;;4.03;;
11048;SDS011;5577;42.706;23.160;2023-06-10T09:11:34;3.77;;;3.47;;
11048;SDS011;5577;42.706;23.160;2023-06-10T09:14:18;3.60;;;3.30;;
11048;SDS011;5577;42.706;23.160;2023-06-10T09:17:03;11.20;;;4.40;;
11048;SDS011;5577;42.706;23.160;2023-06-10T09:19:47;4.20;;;3.10;;
11048;SDS011;5577;42.706;23.160;2023-06-10T09:22:32;3.93;;;3.13;;
11048;SDS011;5577;42.706;23.160;2023-06-10T09:25:17;3.87;;;3.03;;
11048;SDS011;5577;42.706;23.160;2023-06-10T09:28:01;4.33;;;3.07;;
11048;SDS011;5577;42.706;23.160;2023-06-10T09:30:45;4.00;;;3.20;;
11048;SDS011;5577;42.706;23.160;2023-06-10T09:33:29;3.90;;;3.60;;
11048;SDS011;5577;42.706;23.160;2023-06-10T09:36:21;4.00;;;3.53;;
11048;SDS011;5577;42.706;23.160;2023-06-10T09:39:13;4.00;;;3.60;;
11048;SDS011;5577;42.706;23.160;2023-06-10T09:41:59;4.00;;;3.60;;
11048;SDS011;5577;42.706;23.160;2023-06-10T09:44:50;3.87;;;3.47;;
11048;SDS011;5577;42.706;23.160;2023-06-10T09:47:35;22.63;;;4.87;;
11048;SDS011;5577;42.706;23.160;2023-06-10T09:50:19;3.83;;;3.50;;
11048;SDS011;5577;42.706;23.160;2023-06-10T09:53:04;3.63;;;3.33;;
11048;SDS011;5577;42.706;23.160;2023-06-10T09:55:51;3.87;;;3.57;;
11048;SDS011;5577;42.706;23.160;2023-06-10T09:58:39;5.27;;;3.33;;
11048;SDS011;5577;42.706;23.160;2023-06-10T10:01:25;4.83;;;3.73;;
11048;SDS011;5577;42.706;23.160;2023-06-10T10:04:10;6.27;;;3.67;;
11048;SDS011;5577;42.706;23.160;2023-06-10T10:06:54;4.00;;;3.60;;
11048;SDS011;5577;42.706;23.160;2023-06-10T10:09:38;5.03;;;3.80;;
11048;SDS011;5577;42.706;23.160;2023-06-10T10:12:23;4.90;;;3.43;;
11048;SDS011;5577;42.706;23.160;2023-06-10T10:15:10;4.47;;;4.07;;
11048;SDS011;5577;42.706;23.160;2023-06-10T10:18:00;4.60;;;3.30;;
11048;SDS011;5577;42.706;23.160;2023-06-10T10:20:51;4.53;;;3.30;;
11048;SDS011;5577;42.706;23.160;2023-06-10T10:24:21;3.90;;;3.53;;
11048;SDS011;5577;42.706;23.160;2023-06-10T10:26:51;3.63;;;3.33;;
11048;SDS011;5577;42.706;23.160;2023-06-10T10:29:42;3.90;;;3.57;;
11048;SDS011;5577;42.706;23.160;2023-06-10T10:32:42;4.40;;;3.40;;
11048;SDS011;5577;42.706;23.160;2023-06-10T10:35:35;4.53;;;4.07;;
11048;SDS011;5577;42.706;23.160;2023-06-10T10:38:20;3.60;;;3.30;;
11048;SDS011;5577;42.706;23.160;2023-06-10T10:41:05;4.13;;;3.33;;
11048;SDS011;5577;42.706;23.160;2023-06-10T10:43:50;3.80;;;3.50;;
11048;SDS011;5577;42.706;23.160;2023-06-10T10:46:42;3.50;;;3.20;;
11048;SDS011;5577;42.706;23.160;2023-06-10T10:49:27;3.53;;;3.23;;
11048;SDS011;5577;42.706;23.160;2023-06-10T10:52:13;5.70;;;3.50;;
11048;SDS011;5577;42.706;23.160;2023-06-10T10:54:57;4.23;;;3.83;;
11048;SDS011;5577;42.706;23.160;2023-06-10T10:57:41;3.93;;;3.33;;
11048;SDS011;5577;42.706;23.160;2023-06-10T11:00:32;3.40;;;3.10;;
11048;SDS011;5577;42.706;23.160;2023-06-10T11:03:17;4.13;;;3.70;;
11048;SDS011;5577;42.706;23.160;2023-06-10T11:06:01;3.97;;;3.63;;
11048;SDS011;5577;42.706;23.160;2023-06-10T11:08:56;3.60;;;3.30;;
11048;SDS011;5577;42.706;23.160;2023-06-10T11:11:48;5.03;;;3.43;;
11048;SDS011;5577;42.706;23.160;2023-06-10T11:14:33;3.60;;;3.30;;
11048;SDS011;5577;42.706;23.160;2023-06-10T11:17:18;4.70;;;3.60;;
11048;SDS011;5577;42.706;23.160;2023-06-10T11:20:03;4.70;;;4.03;;
11048;SDS011;5577;42.706;23.160;2023-06-10T11:22:58;4.10;;;3.27;;
11048;SDS011;5577;42.706;23.160;2023-06-10T11:25:44;3.67;;;3.37;;
11048;SDS011;5577;42.706;23.160;2023-06-10T11:28:28;3.60;;;3.30;;
11048;SDS011;5577;42.706;23.160;2023-06-10T11:31:18;6.07;;;3.90;;
11048;SDS011;5577;42.706;23.160;2023-06-10T11:34:04;3.20;;;3.00;;
11048;SDS011;5577;42.706;23.160;2023-06-10T11:36:50;4.73;;;3.13;;
11048;SDS011;5577;42.706;23.160;2023-06-10T11:39:35;3.90;;;3.60;;
11048;SDS011;5577;42.706;23.160;2023-06-10T11:42:19;4.43;;;3.37;;
11048;SDS011;5577;42.706;23.160;2023-06-10T11:45:03;3.50;;;3.20;;
11048;SDS011;5577;42.706;23.160;2023-06-10T11:47:58;4.83;;;3.30;;
11048;SDS011;5577;42.706;23.160;2023-06-10T11:50:43;3.67;;;3.37;;
11048;SDS011;5577;42.706;23.160;2023-06-10T11:53:27;4.00;;;3.50;;
11048;SDS011;5577;42.706;23.160;2023-06-10T11:56:11;3.67;;;3.37;;
11048;SDS011;5577;42.706;23.160;2023-06-10T11:58:56;4.10;;;3.77;;
11048;SDS011;5577;42.706;23.160;2023-06-10T12:01:43;5.27;;;3.40;;
11048;SDS011;5577;42.706;23.160;2023-06-10T12:04:28;3.50;;;3.30;;
11048;SDS011;5577;42.706;23.160;2023-06-10T12:07:18;4.07;;;3.37;;
11048;SDS011;5577;42.706;23.160;2023-06-10T12:10:03;4.73;;;3.67;;
11048;SDS011;5577;42.706;23.160;2023-06-10T12:12:47;3.57;;;3.17;;
11048;SDS011;5577;42.706;23.160;2023-06-10T12:15:32;3.50;;;3.20;;
11048;SDS011;5577;42.706;23.160;2023-06-10T12:18:17;6.37;;;3.47;;
11048;SDS011;5577;42.706;23.160;2023-06-10T12:21:02;3.80;;;3.47;;
11048;SDS011;5577;42.706;23.160;2023-06-10T12:24:00;4.80;;;4.40;;
11048;SDS011;5577;42.706;23.160;2023-06-10T12:26:53;5.93;;;3.80;;
11048;SDS011;5577;42.706;23.160;2023-06-10T12:29:39;4.47;;;3.77;;
11048;SDS011;5577;42.706;23.160;2023-06-10T12:35:29;4.27;;;3.87;;
11048;SDS011;5577;42.706;23.160;2023-06-10T12:38:12;4.10;;;3.70;;
11048;SDS011;5577;42.706;23.160;2023-06-10T12:41:01;6.03;;;3.80;;
11048;SDS011;5577;42.706;23.160;2023-06-10T12:43:47;4.03;;;3.70;;
11048;SDS011;5577;42.706;23.160;2023-06-10T12:46:37;4.10;;;3.80;;
11048;SDS011;5577;42.706;23.160;2023-06-10T12:49:21;5.03;;;3.63;;
11048;SDS011;5577;42.706;23.160;2023-06-10T12:52:06;4.40;;;4.00;;
11048;SDS011;5577;42.706;23.160;2023-06-10T12:54:50;6.07;;;4.60;;
11048;SDS011;5577;42.706;23.160;2023-06-10T12:57:35;5.00;;;4.50;;
11048;SDS011;5577;42.706;23.160;2023-06-10T13:00:19;5.67;;;4.70;;
11048;SDS011;5577;42.706;23.160;2023-06-10T13:03:03;8.23;;;4.77;;
11048;SDS011;5577;42.706;23.160;2023-06-10T13:05:49;5.30;;;4.53;;
11048;SDS011;5577;42.706;23.160;2023-06-10T13:08:33;8.20;;;5.10;;
11048;SDS011;5577;42.706;23.160;2023-06-10T13:11:17;5.13;;;4.63;;
11048;SDS011;5577;42.706;23.160;2023-06-10T13:14:01;7.33;;;4.67;;
11048;SDS011;5577;42.706;23.160;2023-06-10T13:16:46;6.77;;;4.53;;
11048;SDS011;5577;42.706;23.160;2023-06-10T13:19:30;6.07;;;4.77;;
11048;SDS011;5577;42.706;23.160;2023-06-10T13:22:14;7.90;;;4.50;;
11048;SDS011;5577;42.706;23.160;2023-06-10T13:24:58;8.40;;;5.20;;
11048;SDS011;5577;42.706;23.160;2023-06-10T13:27:43;7.93;;;4.83;;
11048;SDS011;5577;42.706;23.160;2023-06-10T13:30:27;5.87;;;5.23;;
11048;SDS011;5577;42.706;23.160;2023-06-10T13:33:11;5.63;;;4.83;;
11048;SDS011;5577;42.706;23.160;2023-06-10T13:35:56;6.43;;;5.00;;
11048;SDS011;5577;42.706;23.160;2023-06-10T13:38:40;6.33;;;4.97;;
11048;SDS011;5577;42.706;23.160;2023-06-10T13:41:23;5.23;;;4.73;;
11048;SDS011;5577;42.706;23.160;2023-06-10T13:44:08;6.23;;;5.20;;
11048;SDS011;5577;42.706;23.160;2023-06-10T13:46:52;5.83;;;5.27;;
11048;SDS011;5577;42.706;23.160;2023-06-10T13:49:36;6.10;;;5.10;;
11048;SDS011;5577;42.706;23.160;2023-06-10T13:52:20;6.90;;;5.30;;
11048;SDS011;5577;42.706;23.160;2023-06-10T13:55:04;6.70;;;4.97;;
11048;SDS011;5577;42.706;23.160;2023-06-10T13:57:49;7.87;;;5.50;;
11048;SDS011;5577;42.706;23.160;2023-06-10T14:00:33;6.37;;;5.30;;
11048;SDS011;5577;42.706;23.160;2023-06-10T14:03:17;7.77;;;5.20;;
11048;SDS011;5577;42.706;23.160;2023-06-10T14:06:01;6.03;;;5.43;;
11048;SDS011;5577;42.706;23.160;2023-06-10T14:08:46;5.30;;;4.63;;
11048;SDS011;5577;42.706;23.160;2023-06-10T14:11:30;5.97;;;5.40;;
11048;SDS011;5577;42.706;23.160;2023-06-10T14:14:14;5.77;;;4.60;;
11048;SDS011;5577;42.706;23.160;2023-06-10T14:16:58;5.83;;;4.63;;
11048;SDS011;5577;42.706;23.160;2023-06-10T14:19:43;4.63;;;4.23;;
11048;SDS011;5577;42.706;23.160;2023-06-10T14:22:27;5.23;;;4.40;;
11048;SDS011;5577;42.706;23.160;2023-06-10T14:25:11;6.33;;;4.50;;
11048;SDS011;5577;42.706;23.160;2023-06-10T14:27:55;4.93;;;4.53;;
11048;SDS011;5577;42.706;23.160;2023-06-10T14:30:39;4.73;;;4.10;;
11048;SDS011;5577;42.706;23.160;2023-06-10T14:33:24;4.87;;;4.37;;
11048;SDS011;5577;42.706;23.160;2023-06-10T14:36:07;5.17;;;4.50;;
11048;SDS011;5577;42.706;23.160;2023-06-10T14:38:51;4.80;;;4.23;;
11048;SDS011;5577;42.706;23.160;2023-06-10T14:41:35;5.63;;;3.83;;
11048;SDS011;5577;42.706;23.160;2023-06-10T14:44:19;4.63;;;4.17;;
11048;SDS011;5577;42.706;23.160;2023-06-10T14:47:04;4.43;;;4.03;;
11048;SDS011;5577;42.706;23.160;2023-06-10T14:49:48;4.93;;;3.97;;
11048;SDS011;5577;42.706;23.160;2023-06-10T14:52:32;4.93;;;4.20;;
11048;SDS011;5577;42.706;23.160;2023-06-10T14:55:16;4.20;;;3.80;;
11048;SDS011;5577;42.706;23.160;2023-06-10T14:57:59;5.20;;;4.70;;
11048;SDS011;5577;42.706;23.160;2023-06-10T15:00:43;4.30;;;3.90;;
11048;SDS011;5577;42.706;23.160;2023-06-10T15:03:27;5.07;;;4.23;;
11048;SDS011;5577;42.706;23.160;2023-06-10T15:06:11;5.33;;;4.50;;
11048;SDS011;5577;42.706;23.160;2023-06-10T15:08:55;5.23;;;4.40;;
11048;SDS011;5577;42.706;23.160;2023-06-10T15:11:39;4.93;;;4.53;;
11048;SDS011;5577;42.706;23.160;2023-06-10T15:14:23;5.03;;;4.53;;
11048;SDS011;5577;42.706;23.160;2023-06-10T15:17:07;6.33;;;4.27;;
11048;SDS011;5577;42.706;23.160;2023-06-10T15:19:51;5.43;;;3.90;;
11048;SDS011;5577;42.706;23.160;2023-06-10T15:22:36;4.67;;;4.20;;
11048;SDS011;5577;42.706;23.160;2023-06-10T15:25:20;7.83;;;4.13;;
11048;SDS011;5577;42.706;23.160;2023-06-10T15:28:03;4.20;;;3.80;;
11048;SDS011;5577;42.706;23.160;2023-06-10T15:30:49;4.10;;;3.70;;
11048;SDS011;5577;42.706;23.160;2023-06-10T15:33:33;4.40;;;4.00;;
11048;SDS011;5577;42.706;23.160;2023-06-10T15:36:17;4.20;;;3.80;;
11048;SDS011;5577;42.706;23.160;2023-06-10T15:39:02;4.70;;;4.10;;
11048;SDS011;5577;42.706;23.160;2023-06-10T15:41:48;5.30;;;4.80;;
11048;SDS011;5577;42.706;23.160;2023-06-10T15:44:32;4.53;;;4.13;;
11048;SDS011;5577;42.706;23.160;2023-06-10T15:47:15;4.67;;;4.13;;
11048;SDS011;5577;42.706;23.160;2023-06-10T15:49:59;5.00;;;4.40;;
11048;SDS011;5577;42.706;23.160;2023-06-10T15:52:43;4.70;;;4.30;;
11048;SDS011;5577;42.706;23.160;2023-06-10T15:55:28;5.53;;;4.17;;
11048;SDS011;5577;42.706;23.160;2023-06-10T15:58:12;5.97;;;4.43;;
11048;SDS011;5577;42.706;23.160;2023-06-10T16:00:57;4.80;;;3.83;;
11048;SDS011;5577;42.706;23.160;2023-06-10T16:03:41;4.00;;;3.70;;
11048;SDS011;5577;42.706;23.160;2023-06-10T16:06:25;4.73;;;4.10;;
11048;SDS011;5577;42.706;23.160;2023-06-10T16:09:08;4.33;;;3.83;;
11048;SDS011;5577;42.706;23.160;2023-06-10T16:11:52;5.13;;;4.20;;
11048;SDS011;5577;42.706;23.160;2023-06-10T16:14:36;4.07;;;3.63;;
11048;SDS011;5577;42.706;23.160;2023-06-10T16:17:20;4.30;;;4.00;;
11048;SDS011;5577;42.706;23.160;2023-06-10T16:20:04;4.40;;;3.73;;
11048;SDS011;5577;42.706;23.160;2023-06-10T16:22:50;4.33;;;3.93;;
11048;SDS011;5577;42.706;23.160;2023-06-10T16:25:33;5.33;;;4.13;;
11048;SDS011;5577;42.706;23.160;2023-06-10T16:28:17;4.70;;;4.30;;
11048;SDS011;5577;42.706;23.160;2023-06-10T16:31:02;4.77;;;4.33;;
11048;SDS011;5577;42.706;23.160;2023-06-10T16:33:46;6.00;;;4.07;;
11048;SDS011;5577;42.706;23.160;2023-06-10T16:36:31;5.00;;;3.60;;
11048;SDS011;5577;42.706;23.160;2023-06-10T16:39:15;4.50;;;4.10;;